sensor_id;sensor_type;location;lat;lon;timestamp;pressure;altitude;pressure_sealevel;temperature;humidity
16120;BME280;12670;53.502;10.252;2023-08-20T00:01:48;101730.50;;;20.91;100.00
16120;BME280;12670;53.502;10.252;2023-08-20T00:04:56;101726.94;;;21.16;100.00
16120;BME280;12670;53.502;10.252;2023-08-20T00:08:01;101731.59;;;21.01;100.00
16120;BME280;12670;53.502;10.252;2023-08-20T00:11:04;101734.06;;;21.04;100.00
16120;BME280;12670;53.502;10.252;2023-08-20T00:14:07;101742.25;;;20.90;100.00
16120;BME280;12670;53.502;10.252;2023-08-20T00:17:10;101744.75;;;20.93;100.00
16120;BME280;12670;53.502;10.252;2023-08-20T00:20:14;101742.88;;;20.81;100.00
16120;BME280;12670;53.502;10.252;2023-08-20T00:23:19;101749.16;;;20.82;100.00
16120;BME280;12670;53.502;10.252;2023-08-20T00:26:23;101747.84;;;20.74;100.00
16120;BME280;12670;53.502;10.252;2023-08-20T00:29:25;101747.41;;;20.68;100.00
16120;BME280;12670;53.502;10.252;2023-08-20T00:32:28;101756.25;;;20.70;100.00
16120;BME280;12670;53.502;10.252;2023-08-20T00:35:31;101760.13;;;20.66;100.00
16120;BME280;12670;53.502;10.252;2023-08-20T00:38:35;101766.13;;;20.57;100.00
16120;BME280;12670;53.502;10.252;2023-08-20T00:41:38;101765.06;;;20.59;100.00
16120;BME280;12670;53.502;10.252;2023-08-20T00:44:41;101764.66;;;20.38;100.00
16120;BME280;12670;53.502;10.252;2023-08-20T00:47:45;101760.59;;;20.45;100.00
16120;BME280;12670;53.502;10.252;2023-08-20T00:50:48;101769.06;;;20.39;100.00
16120;BME280;12670;53.502;10.252;2023-08-20T00:53:52;101771.47;;;20.44;100.00
16120;BME280;12670;53.502;10.252;2023-08-20T00:56:55;101774.88;;;20.33;100.00
16120;BME280;12670;53.502;10.252;2023-08-20T00:59:58;101776.22;;;20.40;100.00
16120;BME280;12670;53.502;10.252;2023-08-20T01:03:02;101771.19;;;20.34;100.00
16120;BME280;12670;53.502;10.252;2023-08-20T01:06:18;101777.97;;;20.27;100.00
16120;BME280;12670;53.502;10.252;2023-08-20T01:09:29;101770.50;;;20.18;100.00
16120;BME280;12670;53.502;10.252;2023-08-20T01:12:34;101771.00;;;20.10;100.00
16120;BME280;12670;53.502;10.252;2023-08-20T01:15:37;101760.13;;;20.12;100.00
16120;BME280;12670;53.502;10.252;2023-08-20T01:18:40;101765.53;;;20.12;100.00
16120;BME280;12670;53.502;10.252;2023-08-20T01:21:50;101764.16;;;20.05;100.00
16120;BME280;12670;53.502;10.252;2023-08-20T01:25:07;101766.50;;;19.96;100.00
16120;BME280;12670;53.502;10.252;2023-08-20T01:28:21;101766.41;;;19.98;100.00
16120;BME280;12670;53.502;10.252;2023-08-20T01:31:25;101771.53;;;19.88;100.00
16120;BME280;12670;53.502;10.252;2023-08-20T01:34:29;101770.19;;;19.81;100.00
16120;BME280;12670;53.502;10.252;2023-08-20T01:37:32;101780.03;;;19.82;100.00
16120;BME280;12670;53.502;10.252;2023-08-20T01:40:35;101776.34;;;19.83;100.00
16120;BME280;12670;53.502;10.252;2023-08-20T01:43:39;101773.28;;;19.75;100.00
16120;BME280;12670;53.502;10.252;2023-08-20T01:46:41;101776.28;;;19.70;100.00
16120;BME280;12670;53.502;10.252;2023-08-20T01:49:44;101776.81;;;19.76;100.00
16120;BME280;12670;53.502;10.252;2023-08-20T01:52:47;101762.72;;;19.72;100.00
16120;BME280;12670;53.502;10.252;2023-08-20T01:55:49;101767.88;;;19.75;100.00
16120;BME280;12670;53.502;10.252;2023-08-20T01:58:53;101770.22;;;19.67;100.00
16120;BME280;12670;53.502;10.252;2023-08-20T02:01:56;101769.53;;;19.63;100.00
16120;BME280;12670;53.502;10.252;2023-08-20T02:04:59;101764.47;;;19.59;100.00
16120;BME280;12670;53.502;10.252;2023-08-20T02:08:02;101765.75;;;19.52;100.00
16120;BME280;12670;53.502;10.252;2023-08-20T02:11:04;101763.38;;;19.47;100.00
16120;BME280;12670;53.502;10.252;2023-08-20T02:14:08;101769.63;;;19.48;100.00
16120;BME280;12670;53.502;10.252;2023-08-20T02:17:11;101765.69;;;19.53;100.00
16120;BME280;12670;53.502;10.252;2023-08-20T02:20:14;101768.06;;;19.43;100.00
16120;BME280;12670;53.502;10.252;2023-08-20T02:23:17;101774.72;;;19.38;100.00
16120;BME280;12670;53.502;10.252;2023-08-20T02:26:19;101774.03;;;19.34;100.00
16120;BME280;12670;53.502;10.252;2023-08-20T02:29:23;101777.22;;;19.41;100.00
16120;BME280;12670;53.502;10.252;2023-08-20T02:32:26;101776.72;;;19.34;100.00
16120;BME280;12670;53.502;10.252;2023-08-20T02:35:30;101783.66;;;19.24;100.00
16120;BME280;12670;53.502;10.252;2023-08-20T02:38:33;101778.06;;;19.27;100.00
16120;BME280;12670;53.502;10.252;2023-08-20T02:41:35;101772.88;;;19.24;100.00
16120;BME280;12670;53.502;10.252;2023-08-20T02:44:39;101761.44;;;19.21;100.00
16120;BME280;12670;53.502;10.252;2023-08-20T02:47:42;101769.03;;;19.14;100.00
16120;BME280;12670;53.502;10.252;2023-08-20T02:50:45;101760.75;;;19.17;100.00
16120;BME280;12670;53.502;10.252;2023-08-20T02:53:48;101757.56;;;19.10;100.00
16120;BME280;12670;53.502;10.252;2023-08-20T02:56:50;101764.41;;;19.02;100.00
16120;BME280;12670;53.502;10.252;2023-08-20T02:59:55;101764.19;;;19.05;100.00
16120;BME280;12670;53.502;10.252;2023-08-20T03:02:57;101772.47;;;19.02;100.00
16120;BME280;12670;53.502;10.252;2023-08-20T03:06:00;101766.50;;;18.97;100.00
16120;BME280;12670;53.502;10.252;2023-08-20T03:09:03;101760.72;;;18.88;100.00
16120;BME280;12670;53.502;10.252;2023-08-20T03:12:07;101765.25;;;18.88;100.00
16120;BME280;12670;53.502;10.252;2023-08-20T03:15:11;101775.09;;;18.87;100.00
16120;BME280;12670;53.502;10.252;2023-08-20T03:18:14;101777.03;;;18.85;100.00
16120;BME280;12670;53.502;10.252;2023-08-20T03:21:17;101776.94;;;18.87;100.00
16120;BME280;12670;53.502;10.252;2023-08-20T03:24:19;101778.69;;;19.02;100.00
16120;BME280;12670;53.502;10.252;2023-08-20T03:27:22;101783.31;;;19.00;100.00
16120;BME280;12670;53.502;10.252;2023-08-20T03:30:26;101786.88;;;19.15;100.00
16120;BME280;12670;53.502;10.252;2023-08-20T03:33:29;101789.31;;;19.20;100.00
16120;BME280;12670;53.502;10.252;2023-08-20T03:36:31;101795.66;;;19.18;100.00
16120;BME280;12670;53.502;10.252;2023-08-20T03:39:34;101799.84;;;19.23;100.00
16120;BME280;12670;53.502;10.252;2023-08-20T03:42:37;101802.84;;;19.18;100.00
16120;BME280;12670;53.502;10.252;2023-08-20T03:45:41;101803.44;;;19.23;100.00
16120;BME280;12670;53.502;10.252;2023-08-20T03:48:44;101807.28;;;19.33;100.00
16120;BME280;12670;53.502;10.252;2023-08-20T03:51:47;101807.44;;;19.16;100.00
16120;BME280;12670;53.502;10.252;2023-08-20T03:54:49;101821.47;;;19.21;100.00
16120;BME280;12670;53.502;10.252;2023-08-20T03:57:52;101828.69;;;19.21;100.00
16120;BME280;12670;53.502;10.252;2023-08-20T04:00:56;101820.53;;;19.22;100.00
16120;BME280;12670;53.502;10.252;2023-08-20T04:04:00;101826.69;;;19.24;100.00
16120;BME280;12670;53.502;10.252;2023-08-20T04:07:02;101824.00;;;19.24;100.00
16120;BME280;12670;53.502;10.252;2023-08-20T04:10:07;101836.81;;;19.35;100.00
16120;BME280;12670;53.502;10.252;2023-08-20T04:13:10;101831.38;;;19.21;100.00
16120;BME280;12670;53.502;10.252;2023-08-20T04:16:16;101836.69;;;19.36;100.00
16120;BME280;12670;53.502;10.252;2023-08-20T04:19:19;101843.44;;;19.43;100.00
16120;BME280;12670;53.502;10.252;2023-08-20T04:22:21;101835.63;;;19.39;100.00
16120;BME280;12670;53.502;10.252;2023-08-20T04:25:24;101832.28;;;19.50;100.00
16120;BME280;12670;53.502;10.252;2023-08-20T04:28:27;101834.97;;;19.35;100.00
16120;BME280;12670;53.502;10.252;2023-08-20T04:31:31;101836.59;;;19.38;100.00
16120;BME280;12670;53.502;10.252;2023-08-20T04:34:33;101834.97;;;19.35;100.00
16120;BME280;12670;53.502;10.252;2023-08-20T04:37:36;101828.25;;;19.42;100.00
16120;BME280;12670;53.502;10.252;2023-08-20T04:40:39;101842.19;;;19.35;100.00
16120;BME280;12670;53.502;10.252;2023-08-20T04:43:42;101850.75;;;19.41;100.00
16120;BME280;12670;53.502;10.252;2023-08-20T04:46:46;101837.09;;;19.44;100.00
16120;BME280;12670;53.502;10.252;2023-08-20T04:49:49;101839.94;;;19.27;100.00
16120;BME280;12670;53.502;10.252;2023-08-20T04:52:51;101844.34;;;19.28;100.00
16120;BME280;12670;53.502;10.252;2023-08-20T04:55:54;101844.19;;;19.31;100.00
16120;BME280;12670;53.502;10.252;2023-08-20T04:58:56;101852.03;;;19.20;100.00
16120;BME280;12670;53.502;10.252;2023-08-20T05:02:01;101851.50;;;19.43;100.00
16120;BME280;12670;53.502;10.252;2023-08-20T05:05:04;101854.38;;;19.40;100.00
16120;BME280;12670;53.502;10.252;2023-08-20T05:08:07;101852.94;;;19.05;100.00
16120;BME280;12670;53.502;10.252;2023-08-20T05:11:10;101857.06;;;19.26;100.00
16120;BME280;12670;53.502;10.252;2023-08-20T05:14:13;101849.31;;;19.06;100.00
16120;BME280;12670;53.502;10.252;2023-08-20T05:17:17;101852.94;;;19.05;100.00
16120;BME280;12670;53.502;10.252;2023-08-20T05:20:19;101849.09;;;19.25;100.00
16120;BME280;12670;53.502;10.252;2023-08-20T05:23:22;101850.16;;;19.51;100.00
16120;BME280;12670;53.502;10.252;2023-08-20T05:26:25;101851.50;;;19.43;100.00
16120;BME280;12670;53.502;10.252;2023-08-20T05:29:27;101860.56;;;19.57;100.00
16120;BME280;12670;53.502;10.252;2023-08-20T05:32:31;101860.16;;;19.49;100.00
16120;BME280;12670;53.502;10.252;2023-08-20T05:35:35;101853.50;;;19.40;100.00
16120;BME280;12670;53.502;10.252;2023-08-20T05:38:37;101850.53;;;19.44;100.00
16120;BME280;12670;53.502;10.252;2023-08-20T05:41:40;101844.28;;;19.44;100.00
16120;BME280;12670;53.502;10.252;2023-08-20T05:44:43;101824.22;;;19.50;100.00
16120;BME280;12670;53.502;10.252;2023-08-20T05:47:47;101806.56;;;19.60;100.00
16120;BME280;12670;53.502;10.252;2023-08-20T05:50:49;101804.31;;;19.52;100.00
16120;BME280;12670;53.502;10.252;2023-08-20T05:53:52;101800.84;;;19.50;100.00
16120;BME280;12670;53.502;10.252;2023-08-20T05:56:57;101805.28;;;19.37;100.00
16120;BME280;12670;53.502;10.252;2023-08-20T05:59:59;101821.31;;;19.38;100.00
16120;BME280;12670;53.502;10.252;2023-08-20T06:03:04;101834.34;;;19.16;100.00
16120;BME280;12670;53.502;10.252;2023-08-20T06:06:08;101846.75;;;19.18;100.00
16120;BME280;12670;53.502;10.252;2023-08-20T06:09:11;101839.19;;;19.25;100.00
16120;BME280;12670;53.502;10.252;2023-08-20T06:12:14;101833.81;;;19.39;100.00
16120;BME280;12670;53.502;10.252;2023-08-20T06:15:17;101848.25;;;19.53;100.00
16120;BME280;12670;53.502;10.252;2023-08-20T06:18:21;101854.09;;;19.45;100.00
16120;BME280;12670;53.502;10.252;2023-08-20T06:21:24;101846.03;;;19.45;100.00
16120;BME280;12670;53.502;10.252;2023-08-20T06:24:27;101851.06;;;19.21;100.00
16120;BME280;12670;53.502;10.252;2023-08-20T06:27:29;101856.72;;;19.47;100.00
16120;BME280;12670;53.502;10.252;2023-08-20T06:30:32;101851.50;;;19.58;100.00
16120;BME280;12670;53.502;10.252;2023-08-20T06:33:36;101845.38;;;19.56;100.00
16120;BME280;12670;53.502;10.252;2023-08-20T06:36:39;101861.13;;;19.48;100.00
16120;BME280;12670;53.502;10.252;2023-08-20T06:39:42;101863.59;;;19.66;100.00
16120;BME280;12670;53.502;10.252;2023-08-20T06:42:45;101867.88;;;19.55;100.00
16120;BME280;12670;53.502;10.252;2023-08-20T06:45:47;101862.91;;;19.63;100.00
16120;BME280;12670;53.502;10.252;2023-08-20T06:48:51;101858.38;;;19.63;100.00
16120;BME280;12670;53.502;10.252;2023-08-20T06:51:54;101854.66;;;19.66;100.00
16120;BME280;12670;53.502;10.252;2023-08-20T06:54:57;101865.97;;;19.85;100.00
16120;BME280;12670;53.502;10.252;2023-08-20T06:57:59;101876.09;;;19.96;100.00
16120;BME280;12670;53.502;10.252;2023-08-20T07:01:02;101886.56;;;20.01;100.00
16120;BME280;12670;53.502;10.252;2023-08-20T07:04:11;101885.41;;;19.90;100.00
16120;BME280;12670;53.502;10.252;2023-08-20T07:07:14;101888.31;;;20.02;100.00
16120;BME280;12670;53.502;10.252;2023-08-20T07:10:17;101891.19;;;20.13;100.00
16120;BME280;12670;53.502;10.252;2023-08-20T07:13:20;101881.75;;;20.20;100.00
16120;BME280;12670;53.502;10.252;2023-08-20T07:16:22;101873.31;;;20.39;100.00
16120;BME280;12670;53.502;10.252;2023-08-20T07:19:26;101878.94;;;20.36;100.00
16120;BME280;12670;53.502;10.252;2023-08-20T07:22:29;101881.16;;;20.29;100.00
16120;BME280;12670;53.502;10.252;2023-08-20T07:25:32;101880.94;;;20.32;100.00
16120;BME280;12670;53.502;10.252;2023-08-20T07:28:35;101891.16;;;20.41;100.00
16120;BME280;12670;53.502;10.252;2023-08-20T07:31:51;101891.34;;;20.53;100.00
16120;BME280;12670;53.502;10.252;2023-08-20T07:34:55;101884.13;;;20.53;100.00
16120;BME280;12670;53.502;10.252;2023-08-20T07:37:58;101889.69;;;20.50;100.00
16120;BME280;12670;53.502;10.252;2023-08-20T07:41:01;101889.19;;;20.58;100.00
16120;BME280;12670;53.502;10.252;2023-08-20T07:44:04;101893.84;;;20.41;100.00
16120;BME280;12670;53.502;10.252;2023-08-20T07:47:07;101890.34;;;20.39;100.00
16120;BME280;12670;53.502;10.252;2023-08-20T07:50:11;101908.16;;;20.70;100.00
16120;BME280;12670;53.502;10.252;2023-08-20T07:53:13;101898.25;;;20.84;100.00
16120;BME280;12670;53.502;10.252;2023-08-20T07:56:16;101906.88;;;20.76;100.00
16120;BME280;12670;53.502;10.252;2023-08-20T07:59:19;101903.31;;;20.75;100.00
16120;BME280;12670;53.502;10.252;2023-08-20T08:02:21;101901.25;;;20.79;100.00
16120;BME280;12670;53.502;10.252;2023-08-20T08:05:25;101892.94;;;21.09;100.00
16120;BME280;12670;53.502;10.252;2023-08-20T08:08:28;101897.78;;;21.31;100.00
16120;BME280;12670;53.502;10.252;2023-08-20T08:11:31;101895.53;;;21.38;100.00
16120;BME280;12670;53.502;10.252;2023-08-20T08:14:33;101891.53;;;21.43;100.00
16120;BME280;12670;53.502;10.252;2023-08-20T08:17:36;101884.66;;;21.52;100.00
16120;BME280;12670;53.502;10.252;2023-08-20T08:20:41;101890.03;;;21.52;100.00
16120;BME280;12670;53.502;10.252;2023-08-20T08:23:43;101891.97;;;21.63;100.00
16120;BME280;12670;53.502;10.252;2023-08-20T08:26:46;101895.31;;;21.79;100.00
16120;BME280;12670;53.502;10.252;2023-08-20T08:29:50;101899.31;;;21.99;100.00
16120;BME280;12670;53.502;10.252;2023-08-20T08:32:52;101899.53;;;21.96;100.00
16120;BME280;12670;53.502;10.252;2023-08-20T08:35:56;101897.63;;;22.11;100.00
16120;BME280;12670;53.502;10.252;2023-08-20T08:38:59;101890.78;;;22.18;100.00
16120;BME280;12670;53.502;10.252;2023-08-20T08:42:04;101903.56;;;22.40;100.00
16120;BME280;12670;53.502;10.252;2023-08-20T08:45:09;101892.44;;;22.44;100.00
16120;BME280;12670;53.502;10.252;2023-08-20T08:48:12;101894.94;;;22.71;100.00
16120;BME280;12670;53.502;10.252;2023-08-20T08:51:16;101900.84;;;22.89;100.00
16120;BME280;12670;53.502;10.252;2023-08-20T08:54:20;101899.22;;;23.10;100.00
16120;BME280;12670;53.502;10.252;2023-08-20T08:57:22;101900.78;;;23.02;100.00
16120;BME280;12670;53.502;10.252;2023-08-20T09:00:25;101902.84;;;23.22;100.00
16120;BME280;12670;53.502;10.252;2023-08-20T09:03:28;101906.81;;;23.40;100.00
16120;BME280;12670;53.502;10.252;2023-08-20T09:06:44;101906.03;;;23.27;100.00
16120;BME280;12670;53.502;10.252;2023-08-20T09:09:46;101904.38;;;23.13;100.00
16120;BME280;12670;53.502;10.252;2023-08-20T09:12:50;101904.97;;;23.76;100.00
16120;BME280;12670;53.502;10.252;2023-08-20T09:15:54;101891.78;;;23.83;100.00
16120;BME280;12670;53.502;10.252;2023-08-20T09:18:59;101903.38;;;23.96;100.00
16120;BME280;12670;53.502;10.252;2023-08-20T09:22:03;101908.28;;;24.02;100.00
16120;BME280;12670;53.502;10.252;2023-08-20T09:25:07;101911.72;;;24.27;100.00
16120;BME280;12670;53.502;10.252;2023-08-20T09:28:10;101906.06;;;24.52;100.00
16120;BME280;12670;53.502;10.252;2023-08-20T09:31:13;101907.00;;;24.62;100.00
16120;BME280;12670;53.502;10.252;2023-08-20T09:34:16;101902.97;;;25.00;100.00
16120;BME280;12670;53.502;10.252;2023-08-20T09:37:21;101912.28;;;24.86;100.00
16120;BME280;12670;53.502;10.252;2023-08-20T09:40:24;101904.47;;;24.93;100.00
16120;BME280;12670;53.502;10.252;2023-08-20T09:43:28;101908.53;;;24.98;100.00
16120;BME280;12670;53.502;10.252;2023-08-20T09:46:34;101903.00;;;24.89;97.12
16120;BME280;12670;53.502;10.252;2023-08-20T09:49:38;101902.97;;;25.00;96.75
16120;BME280;12670;53.502;10.252;2023-08-20T09:52:48;101903.53;;;25.15;97.19
16120;BME280;12670;53.502;10.252;2023-08-20T09:56:01;101891.22;;;25.32;94.91
16120;BME280;12670;53.502;10.252;2023-08-20T09:59:05;101898.59;;;25.41;96.49
16120;BME280;12670;53.502;10.252;2023-08-20T10:02:11;101889.38;;;25.53;93.40
16120;BME280;12670;53.502;10.252;2023-08-20T10:05:16;101888.25;;;25.76;92.03
16120;BME280;12670;53.502;10.252;2023-08-20T10:08:20;101891.47;;;25.91;91.97
16120;BME280;12670;53.502;10.252;2023-08-20T10:11:23;101885.44;;;26.18;92.75
16120;BME280;12670;53.502;10.252;2023-08-20T10:14:25;101890.47;;;26.32;88.94
16120;BME280;12670;53.502;10.252;2023-08-20T10:17:29;101886.59;;;26.75;90.84
16120;BME280;12670;53.502;10.252;2023-08-20T10:20:32;101877.97;;;26.51;85.94
16120;BME280;12670;53.502;10.252;2023-08-20T10:23:40;101878.31;;;26.87;85.97
16120;BME280;12670;53.502;10.252;2023-08-20T10:26:45;101880.44;;;26.93;86.07
16120;BME280;12670;53.502;10.252;2023-08-20T10:29:48;101869.69;;;27.20;83.41
16120;BME280;12670;53.502;10.252;2023-08-20T10:32:52;101862.09;;;26.95;81.20
16120;BME280;12670;53.502;10.252;2023-08-20T10:35:55;101868.09;;;27.47;82.08
16120;BME280;12670;53.502;10.252;2023-08-20T10:39:03;101858.81;;;26.81;84.17
16120;BME280;12670;53.502;10.252;2023-08-20T10:42:25;101866.25;;;27.08;89.58
16120;BME280;12670;53.502;10.252;2023-08-20T10:45:28;101858.47;;;27.43;82.79
16120;BME280;12670;53.502;10.252;2023-08-20T10:48:32;101868.78;;;28.05;80.76
16120;BME280;12670;53.502;10.252;2023-08-20T10:51:36;101862.66;;;28.49;77.71
16120;BME280;12670;53.502;10.252;2023-08-20T10:54:42;101865.50;;;28.75;72.61
16120;BME280;12670;53.502;10.252;2023-08-20T10:57:44;101863.13;;;29.33;74.57
16120;BME280;12670;53.502;10.252;2023-08-20T11:01:18;101863.50;;;28.94;68.83
16120;BME280;12670;53.502;10.252;2023-08-20T11:04:23;101858.16;;;29.55;68.98
16120;BME280;12670;53.502;10.252;2023-08-20T11:07:28;101853.88;;;29.78;71.48
16120;BME280;12670;53.502;10.252;2023-08-20T11:10:35;101862.88;;;29.01;67.94
16120;BME280;12670;53.502;10.252;2023-08-20T11:13:37;101871.16;;;29.09;74.45
16120;BME280;12670;53.502;10.252;2023-08-20T11:16:41;101854.97;;;29.93;69.77
16120;BME280;12670;53.502;10.252;2023-08-20T11:19:44;101861.44;;;29.58;67.95
16120;BME280;12670;53.502;10.252;2023-08-20T11:23:03;101878.31;;;29.10;73.40
16120;BME280;12670;53.502;10.252;2023-08-20T11:26:08;101873.75;;;28.65;73.79
16120;BME280;12670;53.502;10.252;2023-08-20T11:29:12;101878.78;;;29.05;70.48
16120;BME280;12670;53.502;10.252;2023-08-20T11:32:15;101875.19;;;29.05;69.42
16120;BME280;12670;53.502;10.252;2023-08-20T11:35:18;101870.63;;;29.31;74.89
16120;BME280;12670;53.502;10.252;2023-08-20T11:38:22;101877.06;;;28.86;67.86
16120;BME280;12670;53.502;10.252;2023-08-20T11:41:27;101877.31;;;29.55;68.16
16120;BME280;12670;53.502;10.252;2023-08-20T11:44:42;101880.53;;;29.76;67.19
16120;BME280;12670;53.502;10.252;2023-08-20T11:47:45;101874.97;;;29.60;64.04
16120;BME280;12670;53.502;10.252;2023-08-20T11:50:49;101873.91;;;30.13;64.50
16120;BME280;12670;53.502;10.252;2023-08-20T11:53:52;101874.09;;;30.70;62.68
16120;BME280;12670;53.502;10.252;2023-08-20T11:57:02;101878.56;;;30.95;60.41
16120;BME280;12670;53.502;10.252;2023-08-20T12:00:06;101878.66;;;30.53;60.02
16120;BME280;12670;53.502;10.252;2023-08-20T12:03:11;101870.81;;;30.58;62.71
16120;BME280;12670;53.502;10.252;2023-08-20T12:06:18;101864.16;;;30.61;65.30
16120;BME280;12670;53.502;10.252;2023-08-20T12:09:22;101863.06;;;29.69;63.18
16120;BME280;12670;53.502;10.252;2023-08-20T12:12:26;101863.44;;;29.74;70.18
16120;BME280;12670;53.502;10.252;2023-08-20T12:15:29;101866.19;;;30.59;64.80
16120;BME280;12670;53.502;10.252;2023-08-20T12:18:32;101860.59;;;31.17;62.08
16120;BME280;12670;53.502;10.252;2023-08-20T12:21:34;101861.09;;;31.62;60.05
16120;BME280;12670;53.502;10.252;2023-08-20T12:24:37;101864.41;;;32.04;58.08
16120;BME280;12670;53.502;10.252;2023-08-20T12:27:43;101867.81;;;32.06;58.32
16120;BME280;12670;53.502;10.252;2023-08-20T12:30:46;101860.84;;;32.35;54.24
16120;BME280;12670;53.502;10.252;2023-08-20T12:33:49;101858.47;;;32.24;55.13
16120;BME280;12670;53.502;10.252;2023-08-20T12:36:51;101859.91;;;32.11;53.91
16120;BME280;12670;53.502;10.252;2023-08-20T12:39:54;101858.56;;;32.47;56.72
16120;BME280;12670;53.502;10.252;2023-08-20T12:42:58;101851.72;;;32.43;52.29
16120;BME280;12670;53.502;10.252;2023-08-20T12:46:01;101857.97;;;32.82;53.74
16120;BME280;12670;53.502;10.252;2023-08-20T12:49:04;101854.66;;;32.87;52.50
16120;BME280;12670;53.502;10.252;2023-08-20T12:52:07;101856.41;;;32.88;53.82
16120;BME280;12670;53.502;10.252;2023-08-20T12:55:10;101863.66;;;33.04;52.24
16120;BME280;12670;53.502;10.252;2023-08-20T12:58:14;101848.19;;;32.57;52.47
16120;BME280;12670;53.502;10.252;2023-08-20T13:01:17;101848.16;;;32.34;53.35
16120;BME280;12670;53.502;10.252;2023-08-20T13:04:21;101842.38;;;31.81;51.49
16120;BME280;12670;53.502;10.252;2023-08-20T13:07:24;101844.09;;;32.22;55.69
16120;BME280;12670;53.502;10.252;2023-08-20T13:10:28;101840.97;;;31.77;52.30
16120;BME280;12670;53.502;10.252;2023-08-20T13:13:33;101836.44;;;30.88;54.81
16120;BME280;12670;53.502;10.252;2023-08-20T13:16:36;101841.41;;;30.76;56.52
16120;BME280;12670;53.502;10.252;2023-08-20T13:19:39;101839.03;;;31.14;56.09
16120;BME280;12670;53.502;10.252;2023-08-20T13:22:42;101838.50;;;30.86;54.96
16120;BME280;12670;53.502;10.252;2023-08-20T13:25:45;101835.59;;;31.12;56.48
16120;BME280;12670;53.502;10.252;2023-08-20T13:28:49;101840.19;;;31.52;53.77
16120;BME280;12670;53.502;10.252;2023-08-20T13:31:52;101831.75;;;31.70;55.93
16120;BME280;12670;53.502;10.252;2023-08-20T13:34:55;101833.88;;;31.99;56.00
16120;BME280;12670;53.502;10.252;2023-08-20T13:37:57;101829.13;;;31.93;53.03
16120;BME280;12670;53.502;10.252;2023-08-20T13:41:00;101820.97;;;31.61;52.67
16120;BME280;12670;53.502;10.252;2023-08-20T13:44:04;101829.69;;;31.80;54.57
16120;BME280;12670;53.502;10.252;2023-08-20T13:47:07;101821.09;;;31.75;53.22
16120;BME280;12670;53.502;10.252;2023-08-20T13:50:10;101830.19;;;31.76;54.50
16120;BME280;12670;53.502;10.252;2023-08-20T13:53:13;101826.03;;;31.96;54.48
16120;BME280;12670;53.502;10.252;2023-08-20T13:56:15;101824.41;;;32.10;55.37
16120;BME280;12670;53.502;10.252;2023-08-20T13:59:19;101833.53;;;32.02;54.50
16120;BME280;12670;53.502;10.252;2023-08-20T14:02:22;101828.38;;;32.07;54.49
16120;BME280;12670;53.502;10.252;2023-08-20T14:05:25;101825.63;;;32.07;54.12
16120;BME280;12670;53.502;10.252;2023-08-20T14:08:27;101826.69;;;31.98;52.67
16120;BME280;12670;53.502;10.252;2023-08-20T14:11:30;101824.69;;;31.76;52.57
16120;BME280;12670;53.502;10.252;2023-08-20T14:14:34;101813.09;;;31.57;51.60
16120;BME280;12670;53.502;10.252;2023-08-20T14:17:37;101819.81;;;31.22;51.74
16120;BME280;12670;53.502;10.252;2023-08-20T14:20:40;101824.13;;;31.00;57.25
16120;BME280;12670;53.502;10.252;2023-08-20T14:23:42;101813.69;;;30.79;56.07
16120;BME280;12670;53.502;10.252;2023-08-20T14:26:45;101815.31;;;30.32;54.08
16120;BME280;12670;53.502;10.252;2023-08-20T14:29:49;101811.38;;;30.34;56.11
16120;BME280;12670;53.502;10.252;2023-08-20T14:32:52;101806.06;;;29.90;59.54
16120;BME280;12670;53.502;10.252;2023-08-20T14:35:55;101805.53;;;29.87;59.02
16120;BME280;12670;53.502;10.252;2023-08-20T14:38:58;101792.06;;;29.59;55.14
16120;BME280;12670;53.502;10.252;2023-08-20T14:42:00;101790.56;;;29.39;58.28
16120;BME280;12670;53.502;10.252;2023-08-20T14:45:06;101789.59;;;29.22;59.75
16120;BME280;12670;53.502;10.252;2023-08-20T14:48:08;101787.81;;;29.13;62.45
16120;BME280;12670;53.502;10.252;2023-08-20T14:51:11;101789.56;;;28.96;62.75
16120;BME280;12670;53.502;10.252;2023-08-20T14:54:14;101791.03;;;28.90;61.92
16120;BME280;12670;53.502;10.252;2023-08-20T14:57:16;101785.34;;;28.66;63.40
16120;BME280;12670;53.502;10.252;2023-08-20T15:00:21;101774.78;;;28.45;60.50
16120;BME280;12670;53.502;10.252;2023-08-20T15:03:25;101782.34;;;28.51;66.26
16120;BME280;12670;53.502;10.252;2023-08-20T15:06:28;101783.72;;;28.37;60.21
16120;BME280;12670;53.502;10.252;2023-08-20T15:09:30;101784.38;;;28.04;62.79
16120;BME280;12670;53.502;10.252;2023-08-20T15:12:33;101782.84;;;27.92;63.86
16120;BME280;12670;53.502;10.252;2023-08-20T15:15:37;101783.34;;;28.05;67.99
16120;BME280;12670;53.502;10.252;2023-08-20T15:18:40;101784.38;;;27.67;65.43
16120;BME280;12670;53.502;10.252;2023-08-20T15:21:42;101789.28;;;27.90;69.11
16120;BME280;12670;53.502;10.252;2023-08-20T15:24:45;101775.75;;;27.81;64.12
16120;BME280;12670;53.502;10.252;2023-08-20T15:27:49;101781.78;;;27.65;66.99
16120;BME280;12670;53.502;10.252;2023-08-20T15:30:53;101782.72;;;27.56;68.44
16120;BME280;12670;53.502;10.252;2023-08-20T15:33:56;101778.16;;;27.47;69.87
16120;BME280;12670;53.502;10.252;2023-08-20T15:36:59;101778.16;;;27.47;73.25
16120;BME280;12670;53.502;10.252;2023-08-20T15:40:02;101781.06;;;27.26;68.94